sensor_id;sensor_type;location;lat;lon;timestamp;P1;durP1;ratioP1;P2;durP2;ratioP2
3050;SDS011;1535;51.098;6.414;2023-08-01T00:01:31;4.57;;;4.47;;
3050;SDS011;1535;51.098;6.414;2023-08-01T00:03:59;4.50;;;4.40;;
3050;SDS011;1535;51.098;6.414;2023-08-01T00:06:26;5.20;;;5.10;;
3050;SDS011;1535;51.098;6.414;2023-08-01T00:08:55;5.10;;;5.00;;
3050;SDS011;1535;51.098;6.414;2023-08-01T00:11:22;4.40;;;4.30;;
3050;SDS011;1535;51.098;6.414;2023-08-01T00:13:49;4.60;;;4.50;;
3050;SDS011;1535;51.098;6.414;2023-08-01T00:16:16;4.70;;;4.60;;
3050;SDS011;1535;51.098;6.414;2023-08-01T00:18:43;4.20;;;4.10;;
3050;SDS011;1535;51.098;6.414;2023-08-01T00:21:10;32.10;;;5.47;;
3050;SDS011;1535;51.098;6.414;2023-08-01T00:23:37;3.60;;;3.50;;
3050;SDS011;1535;51.098;6.414;2023-08-01T00:26:05;4.23;;;2.93;;
3050;SDS011;1535;51.098;6.414;2023-08-01T00:28:32;3.00;;;2.90;;
3050;SDS011;1535;51.098;6.414;2023-08-01T00:31:03;3.00;;;2.90;;
3050;SDS011;1535;51.098;6.414;2023-08-01T00:33:30;3.40;;;3.30;;
3050;SDS011;1535;51.098;6.414;2023-08-01T00:35:57;3.60;;;3.50;;
3050;SDS011;1535;51.098;6.414;2023-08-01T00:38:25;3.80;;;3.70;;
3050;SDS011;1535;51.098;6.414;2023-08-01T00:40:52;4.83;;;4.73;;
3050;SDS011;1535;51.098;6.414;2023-08-01T00:43:20;4.53;;;4.43;;
3050;SDS011;1535;51.098;6.414;2023-08-01T00:45:46;4.40;;;4.30;;
3050;SDS011;1535;51.098;6.414;2023-08-01T00:48:14;4.50;;;4.40;;
3050;SDS011;1535;51.098;6.414;2023-08-01T00:50:41;4.10;;;4.00;;
3050;SDS011;1535;51.098;6.414;2023-08-01T00:53:08;4.47;;;4.37;;
3050;SDS011;1535;51.098;6.414;2023-08-01T00:55:35;3.97;;;3.87;;
3050;SDS011;1535;51.098;6.414;2023-08-01T00:58:03;3.87;;;3.77;;
3050;SDS011;1535;51.098;6.414;2023-08-01T01:00:32;4.17;;;4.07;;
3050;SDS011;1535;51.098;6.414;2023-08-01T01:03:00;4.50;;;4.40;;
3050;SDS011;1535;51.098;6.414;2023-08-01T01:05:27;4.50;;;4.40;;
3050;SDS011;1535;51.098;6.414;2023-08-01T01:08:00;4.20;;;4.10;;
3050;SDS011;1535;51.098;6.414;2023-08-01T01:10:30;4.60;;;4.40;;
3050;SDS011;1535;51.098;6.414;2023-08-01T01:12:58;3.93;;;3.83;;
3050;SDS011;1535;51.098;6.414;2023-08-01T01:15:24;4.20;;;4.10;;
3050;SDS011;1535;51.098;6.414;2023-08-01T01:17:53;4.00;;;3.90;;
3050;SDS011;1535;51.098;6.414;2023-08-01T01:20:22;4.30;;;4.20;;
3050;SDS011;1535;51.098;6.414;2023-08-01T01:22:51;4.27;;;4.17;;
3050;SDS011;1535;51.098;6.414;2023-08-01T01:25:19;4.10;;;4.00;;
3050;SDS011;1535;51.098;6.414;2023-08-01T01:27:47;4.60;;;4.50;;
3050;SDS011;1535;51.098;6.414;2023-08-01T01:30:15;4.53;;;4.43;;
3050;SDS011;1535;51.098;6.414;2023-08-01T01:32:44;4.30;;;4.20;;
3050;SDS011;1535;51.098;6.414;2023-08-01T01:35:12;4.00;;;3.90;;
3050;SDS011;1535;51.098;6.414;2023-08-01T01:37:39;4.00;;;3.90;;
3050;SDS011;1535;51.098;6.414;2023-08-01T01:40:10;4.10;;;4.00;;
3050;SDS011;1535;51.098;6.414;2023-08-01T01:42:37;4.93;;;4.73;;
3050;SDS011;1535;51.098;6.414;2023-08-01T01:45:05;3.90;;;3.80;;
3050;SDS011;1535;51.098;6.414;2023-08-01T01:47:32;4.23;;;4.13;;
3050;SDS011;1535;51.098;6.414;2023-08-01T01:49:59;7.90;;;3.90;;
3050;SDS011;1535;51.098;6.414;2023-08-01T01:52:26;4.27;;;4.17;;
3050;SDS011;1535;51.098;6.414;2023-08-01T01:54:56;4.00;;;3.90;;
3050;SDS011;1535;51.098;6.414;2023-08-01T01:57:24;4.63;;;4.53;;
3050;SDS011;1535;51.098;6.414;2023-08-01T01:59:51;4.60;;;4.50;;
3050;SDS011;1535;51.098;6.414;2023-08-01T02:02:18;4.60;;;4.50;;
3050;SDS011;1535;51.098;6.414;2023-08-01T02:04:46;4.30;;;4.20;;
3050;SDS011;1535;51.098;6.414;2023-08-01T02:07:14;4.60;;;4.50;;
3050;SDS011;1535;51.098;6.414;2023-08-01T02:09:41;4.70;;;4.50;;
3050;SDS011;1535;51.098;6.414;2023-08-01T02:12:08;4.70;;;4.50;;
3050;SDS011;1535;51.098;6.414;2023-08-01T02:14:41;4.00;;;3.90;;
3050;SDS011;1535;51.098;6.414;2023-08-01T02:17:08;4.40;;;4.30;;
3050;SDS011;1535;51.098;6.414;2023-08-01T02:19:35;4.73;;;4.53;;
3050;SDS011;1535;51.098;6.414;2023-08-01T02:22:01;4.60;;;4.50;;
3050;SDS011;1535;51.098;6.414;2023-08-01T02:24:29;4.57;;;4.47;;
3050;SDS011;1535;51.098;6.414;2023-08-01T02:26:57;4.37;;;4.27;;
3050;SDS011;1535;51.098;6.414;2023-08-01T02:29:24;4.87;;;4.77;;
3050;SDS011;1535;51.098;6.414;2023-08-01T02:31:52;4.63;;;4.53;;
3050;SDS011;1535;51.098;6.414;2023-08-01T02:34:20;4.93;;;4.83;;
3050;SDS011;1535;51.098;6.414;2023-08-01T02:36:46;5.43;;;5.23;;
3050;SDS011;1535;51.098;6.414;2023-08-01T02:39:14;4.70;;;4.60;;
3050;SDS011;1535;51.098;6.414;2023-08-01T02:41:41;4.93;;;4.83;;
3050;SDS011;1535;51.098;6.414;2023-08-01T02:44:08;5.17;;;4.97;;
3050;SDS011;1535;51.098;6.414;2023-08-01T02:46:35;5.07;;;4.87;;
3050;SDS011;1535;51.098;6.414;2023-08-01T02:49:03;6.23;;;6.03;;
3050;SDS011;1535;51.098;6.414;2023-08-01T02:51:29;6.03;;;5.73;;
3050;SDS011;1535;51.098;6.414;2023-08-01T02:53:56;7.93;;;7.33;;
3050;SDS011;1535;51.098;6.414;2023-08-01T02:56:23;5.73;;;5.47;;
3050;SDS011;1535;51.098;6.414;2023-08-01T02:58:50;6.30;;;5.93;;
3050;SDS011;1535;51.098;6.414;2023-08-01T03:01:17;6.77;;;6.30;;
3050;SDS011;1535;51.098;6.414;2023-08-01T03:03:45;5.80;;;5.50;;
3050;SDS011;1535;51.098;6.414;2023-08-01T03:06:14;7.57;;;7.07;;
3050;SDS011;1535;51.098;6.414;2023-08-01T03:08:42;8.53;;;7.00;;
3050;SDS011;1535;51.098;6.414;2023-08-01T03:11:08;6.93;;;6.53;;
3050;SDS011;1535;51.098;6.414;2023-08-01T03:13:35;8.70;;;7.93;;
3050;SDS011;1535;51.098;6.414;2023-08-01T03:16:02;5.63;;;5.43;;
3050;SDS011;1535;51.098;6.414;2023-08-01T03:18:30;7.77;;;7.23;;
3050;SDS011;1535;51.098;6.414;2023-08-01T03:20:57;7.63;;;6.93;;
3050;SDS011;1535;51.098;6.414;2023-08-01T03:23:25;7.20;;;6.80;;
3050;SDS011;1535;51.098;6.414;2023-08-01T03:25:52;5.37;;;5.13;;
3050;SDS011;1535;51.098;6.414;2023-08-01T03:28:19;7.23;;;6.70;;
3050;SDS011;1535;51.098;6.414;2023-08-01T03:30:45;9.23;;;5.60;;
3050;SDS011;1535;51.098;6.414;2023-08-01T03:33:14;9.23;;;7.50;;
3050;SDS011;1535;51.098;6.414;2023-08-01T03:35:42;6.17;;;5.77;;
3050;SDS011;1535;51.098;6.414;2023-08-01T03:38:09;8.70;;;8.10;;
3050;SDS011;1535;51.098;6.414;2023-08-01T03:40:38;7.53;;;6.50;;
3050;SDS011;1535;51.098;6.414;2023-08-01T03:43:06;5.37;;;4.83;;
3050;SDS011;1535;51.098;6.414;2023-08-01T03:45:34;6.43;;;6.03;;
3050;SDS011;1535;51.098;6.414;2023-08-01T03:48:02;10.17;;;6.27;;
3050;SDS011;1535;51.098;6.414;2023-08-01T03:50:29;4.87;;;4.77;;
3050;SDS011;1535;51.098;6.414;2023-08-01T03:52:57;22.43;;;6.07;;
3050;SDS011;1535;51.098;6.414;2023-08-01T03:55:24;4.80;;;4.50;;
3050;SDS011;1535;51.098;6.414;2023-08-01T03:57:53;4.93;;;4.73;;
3050;SDS011;1535;51.098;6.414;2023-08-01T04:00:20;5.77;;;5.47;;
3050;SDS011;1535;51.098;6.414;2023-08-01T04:02:48;4.87;;;4.67;;
3050;SDS011;1535;51.098;6.414;2023-08-01T04:05:16;5.63;;;5.30;;
3050;SDS011;1535;51.098;6.414;2023-08-01T04:07:43;4.20;;;4.10;;
3050;SDS011;1535;51.098;6.414;2023-08-01T04:10:10;5.67;;;5.47;;
3050;SDS011;1535;51.098;6.414;2023-08-01T04:12:37;4.63;;;4.53;;
3050;SDS011;1535;51.098;6.414;2023-08-01T04:15:07;8.90;;;8.10;;
3050;SDS011;1535;51.098;6.414;2023-08-01T04:17:35;4.83;;;4.60;;
3050;SDS011;1535;51.098;6.414;2023-08-01T04:20:02;9.77;;;6.23;;
3050;SDS011;1535;51.098;6.414;2023-08-01T04:22:31;7.03;;;5.40;;
3050;SDS011;1535;51.098;6.414;2023-08-01T04:24:58;5.77;;;5.53;;
3050;SDS011;1535;51.098;6.414;2023-08-01T04:27:24;4.43;;;4.33;;
3050;SDS011;1535;51.098;6.414;2023-08-01T04:29:51;5.50;;;5.20;;
3050;SDS011;1535;51.098;6.414;2023-08-01T04:32:20;6.97;;;6.40;;
3050;SDS011;1535;51.098;6.414;2023-08-01T04:34:48;5.80;;;5.30;;
3050;SDS011;1535;51.098;6.414;2023-08-01T04:37:15;3.33;;;3.13;;
3050;SDS011;1535;51.098;6.414;2023-08-01T04:39:45;9.30;;;3.10;;
3050;SDS011;1535;51.098;6.414;2023-08-01T04:42:13;3.60;;;3.40;;
3050;SDS011;1535;51.098;6.414;2023-08-01T04:44:41;4.90;;;4.47;;
3050;SDS011;1535;51.098;6.414;2023-08-01T04:47:08;2.80;;;2.70;;
3050;SDS011;1535;51.098;6.414;2023-08-01T04:49:36;3.67;;;3.40;;
3050;SDS011;1535;51.098;6.414;2023-08-01T04:52:05;9.93;;;3.77;;
3050;SDS011;1535;51.098;6.414;2023-08-01T04:54:32;3.17;;;3.03;;
3050;SDS011;1535;51.098;6.414;2023-08-01T04:57:00;3.40;;;3.17;;
3050;SDS011;1535;51.098;6.414;2023-08-01T04:59:29;3.30;;;3.00;;
3050;SDS011;1535;51.098;6.414;2023-08-01T05:01:55;2.47;;;2.37;;
3050;SDS011;1535;51.098;6.414;2023-08-01T05:04:22;3.57;;;2.77;;
3050;SDS011;1535;51.098;6.414;2023-08-01T05:06:51;3.27;;;3.03;;
3050;SDS011;1535;51.098;6.414;2023-08-01T05:09:18;4.93;;;4.40;;
3050;SDS011;1535;51.098;6.414;2023-08-01T05:11:47;4.67;;;4.33;;
3050;SDS011;1535;51.098;6.414;2023-08-01T05:14:14;9.23;;;5.90;;
3050;SDS011;1535;51.098;6.414;2023-08-01T05:16:43;3.90;;;3.57;;
3050;SDS011;1535;51.098;6.414;2023-08-01T05:19:10;2.00;;;1.90;;
3050;SDS011;1535;51.098;6.414;2023-08-01T05:21:36;4.63;;;3.07;;
3050;SDS011;1535;51.098;6.414;2023-08-01T05:24:06;6.20;;;5.73;;
3050;SDS011;1535;51.098;6.414;2023-08-01T05:26:33;3.37;;;3.17;;
3050;SDS011;1535;51.098;6.414;2023-08-01T05:29:00;5.73;;;4.10;;
3050;SDS011;1535;51.098;6.414;2023-08-01T05:31:27;3.80;;;3.50;;
3050;SDS011;1535;51.098;6.414;2023-08-01T05:33:54;8.30;;;5.40;;
3050;SDS011;1535;51.098;6.414;2023-08-01T05:36:21;5.33;;;4.47;;
3050;SDS011;1535;51.098;6.414;2023-08-01T05:38:48;3.70;;;3.50;;
3050;SDS011;1535;51.098;6.414;2023-08-01T05:41:17;4.87;;;2.93;;
3050;SDS011;1535;51.098;6.414;2023-08-01T05:43:44;11.03;;;4.80;;
3050;SDS011;1535;51.098;6.414;2023-08-01T05:46:12;2.97;;;2.87;;
3050;SDS011;1535;51.098;6.414;2023-08-01T05:48:40;6.30;;;5.80;;
3050;SDS011;1535;51.098;6.414;2023-08-01T05:51:07;4.23;;;3.83;;
3050;SDS011;1535;51.098;6.414;2023-08-01T05:53:34;5.57;;;4.90;;
3050;SDS011;1535;51.098;6.414;2023-08-01T05:56:02;3.70;;;3.50;;
3050;SDS011;1535;51.098;6.414;2023-08-01T05:58:31;6.87;;;5.37;;
3050;SDS011;1535;51.098;6.414;2023-08-01T06:00:58;6.77;;;6.20;;
3050;SDS011;1535;51.098;6.414;2023-08-01T06:03:25;5.53;;;5.03;;
3050;SDS011;1535;51.098;6.414;2023-08-01T06:05:52;4.70;;;4.50;;
3050;SDS011;1535;51.098;6.414;2023-08-01T06:08:19;7.03;;;5.00;;
3050;SDS011;1535;51.098;6.414;2023-08-01T06:10:47;5.30;;;4.90;;
3050;SDS011;1535;51.098;6.414;2023-08-01T06:13:14;5.33;;;4.93;;
3050;SDS011;1535;51.098;6.414;2023-08-01T06:15:43;5.80;;;5.40;;
3050;SDS011;1535;51.098;6.414;2023-08-01T06:18:11;3.77;;;3.67;;
3050;SDS011;1535;51.098;6.414;2023-08-01T06:20:37;4.60;;;4.50;;
3050;SDS011;1535;51.098;6.414;2023-08-01T06:23:05;5.73;;;5.37;;
3050;SDS011;1535;51.098;6.414;2023-08-01T06:25:32;5.70;;;5.40;;
3050;SDS011;1535;51.098;6.414;2023-08-01T06:27:59;5.17;;;5.00;;
3050;SDS011;1535;51.098;6.414;2023-08-01T06:30:26;4.43;;;4.30;;
3050;SDS011;1535;51.098;6.414;2023-08-01T06:32:56;6.37;;;6.03;;
3050;SDS011;1535;51.098;6.414;2023-08-01T06:35:23;4.70;;;4.60;;
3050;SDS011;1535;51.098;6.414;2023-08-01T06:37:52;6.40;;;6.03;;
3050;SDS011;1535;51.098;6.414;2023-08-01T06:40:19;6.17;;;5.77;;
3050;SDS011;1535;51.098;6.414;2023-08-01T06:42:46;7.83;;;7.00;;
3050;SDS011;1535;51.098;6.414;2023-08-01T06:45:13;8.10;;;7.50;;
3050;SDS011;1535;51.098;6.414;2023-08-01T06:47:41;5.63;;;5.43;;
3050;SDS011;1535;51.098;6.414;2023-08-01T06:50:10;6.33;;;6.03;;
3050;SDS011;1535;51.098;6.414;2023-08-01T06:52:36;10.03;;;8.93;;
3050;SDS011;1535;51.098;6.414;2023-08-01T06:55:04;9.37;;;8.63;;
3050;SDS011;1535;51.098;6.414;2023-08-01T06:57:33;9.47;;;8.63;;
3050;SDS011;1535;51.098;6.414;2023-08-01T06:59:59;9.03;;;8.43;;
3050;SDS011;1535;51.098;6.414;2023-08-01T07:02:27;7.93;;;7.53;;
3050;SDS011;1535;51.098;6.414;2023-08-01T07:04:55;6.83;;;6.63;;
3050;SDS011;1535;51.098;6.414;2023-08-01T07:07:23;23.27;;;8.93;;
3050;SDS011;1535;51.098;6.414;2023-08-01T07:09:50;8.20;;;7.70;;
3050;SDS011;1535;51.098;6.414;2023-08-01T07:12:17;7.77;;;7.57;;
3050;SDS011;1535;51.098;6.414;2023-08-01T07:14:45;8.97;;;8.57;;
3050;SDS011;1535;51.098;6.414;2023-08-01T07:17:12;8.60;;;8.30;;
3050;SDS011;1535;51.098;6.414;2023-08-01T07:19:39;9.07;;;8.70;;
3050;SDS011;1535;51.098;6.414;2023-08-01T07:22:05;9.23;;;8.90;;
3050;SDS011;1535;51.098;6.414;2023-08-01T07:24:35;10.90;;;10.10;;
3050;SDS011;1535;51.098;6.414;2023-08-01T07:27:02;10.47;;;9.97;;
3050;SDS011;1535;51.098;6.414;2023-08-01T07:29:29;11.13;;;10.33;;
3050;SDS011;1535;51.098;6.414;2023-08-01T07:31:56;9.80;;;9.20;;
3050;SDS011;1535;51.098;6.414;2023-08-01T07:34:23;11.53;;;10.80;;
3050;SDS011;1535;51.098;6.414;2023-08-01T07:36:50;12.23;;;11.30;;
3050;SDS011;1535;51.098;6.414;2023-08-01T07:39:17;10.60;;;10.10;;
3050;SDS011;1535;51.098;6.414;2023-08-01T07:41:46;10.70;;;10.20;;
3050;SDS011;1535;51.098;6.414;2023-08-01T07:44:13;12.63;;;11.87;;
3050;SDS011;1535;51.098;6.414;2023-08-01T07:46:40;10.47;;;9.97;;
3050;SDS011;1535;51.098;6.414;2023-08-01T07:49:07;11.03;;;10.43;;
3050;SDS011;1535;51.098;6.414;2023-08-01T07:51:34;12.27;;;11.57;;
3050;SDS011;1535;51.098;6.414;2023-08-01T07:54:01;13.43;;;12.60;;
3050;SDS011;1535;51.098;6.414;2023-08-01T07:56:28;14.33;;;13.17;;
3050;SDS011;1535;51.098;6.414;2023-08-01T07:58:56;10.50;;;10.10;;
3050;SDS011;1535;51.098;6.414;2023-08-01T08:01:23;13.27;;;12.33;;
3050;SDS011;1535;51.098;6.414;2023-08-01T08:03:49;12.90;;;11.90;;
3050;SDS011;1535;51.098;6.414;2023-08-01T08:06:16;13.10;;;12.30;;
3050;SDS011;1535;51.098;6.414;2023-08-01T08:08:46;12.20;;;11.60;;
3050;SDS011;1535;51.098;6.414;2023-08-01T08:11:13;11.00;;;10.50;;
3050;SDS011;1535;51.098;6.414;2023-08-01T08:13:41;10.53;;;10.13;;
3050;SDS011;1535;51.098;6.414;2023-08-01T08:16:10;13.80;;;12.93;;
3050;SDS011;1535;51.098;6.414;2023-08-01T08:18:37;12.80;;;12.10;;
3050;SDS011;1535;51.098;6.414;2023-08-01T08:21:04;12.87;;;12.27;;
3050;SDS011;1535;51.098;6.414;2023-08-01T08:23:31;12.43;;;11.93;;
3050;SDS011;1535;51.098;6.414;2023-08-01T08:25:58;13.90;;;13.10;;
3050;SDS011;1535;51.098;6.414;2023-08-01T08:28:28;12.50;;;11.80;;
3050;SDS011;1535;51.098;6.414;2023-08-01T08:30:56;13.10;;;12.40;;
3050;SDS011;1535;51.098;6.414;2023-08-01T08:33:24;14.80;;;13.63;;
3050;SDS011;1535;51.098;6.414;2023-08-01T08:35:52;15.00;;;13.90;;
3050;SDS011;1535;51.098;6.414;2023-08-01T08:38:19;14.00;;;13.20;;
3050;SDS011;1535;51.098;6.414;2023-08-01T08:40:48;13.30;;;12.70;;
3050;SDS011;1535;51.098;6.414;2023-08-01T08:43:22;14.63;;;13.60;;
3050;SDS011;1535;51.098;6.414;2023-08-01T08:45:49;14.70;;;13.90;;
3050;SDS011;1535;51.098;6.414;2023-08-01T08:48:19;12.90;;;12.33;;
3050;SDS011;1535;51.098;6.414;2023-08-01T08:50:48;13.37;;;12.77;;
3050;SDS011;1535;51.098;6.414;2023-08-01T08:53:16;13.57;;;12.80;;
3050;SDS011;1535;51.098;6.414;2023-08-01T08:55:45;14.10;;;13.40;;
3050;SDS011;1535;51.098;6.414;2023-08-01T08:58:13;13.43;;;12.73;;
3050;SDS011;1535;51.098;6.414;2023-08-01T09:00:41;14.20;;;13.60;;
3050;SDS011;1535;51.098;6.414;2023-08-01T09:03:09;14.77;;;13.80;;
3050;SDS011;1535;51.098;6.414;2023-08-01T09:05:37;14.17;;;13.47;;
3050;SDS011;1535;51.098;6.414;2023-08-01T09:08:15;13.00;;;12.50;;
3050;SDS011;1535;51.098;6.414;2023-08-01T09:10:44;14.97;;;14.27;;
3050;SDS011;1535;51.098;6.414;2023-08-01T09:13:12;16.80;;;15.37;;
3050;SDS011;1535;51.098;6.414;2023-08-01T09:15:39;14.87;;;13.97;;
3050;SDS011;1535;51.098;6.414;2023-08-01T09:18:08;15.60;;;14.43;;
3050;SDS011;1535;51.098;6.414;2023-08-01T09:20:45;14.83;;;14.13;;
3050;SDS011;1535;51.098;6.414;2023-08-01T09:23:15;15.40;;;14.60;;
3050;SDS011;1535;51.098;6.414;2023-08-01T09:25:43;14.33;;;13.63;;
3050;SDS011;1535;51.098;6.414;2023-08-01T09:28:17;15.27;;;13.70;;
3050;SDS011;1535;51.098;6.414;2023-08-01T09:30:47;14.10;;;13.50;;
3050;SDS011;1535;51.098;6.414;2023-08-01T09:33:15;14.57;;;13.93;;
3050;SDS011;1535;51.098;6.414;2023-08-01T09:35:43;15.47;;;14.57;;
3050;SDS011;1535;51.098;6.414;2023-08-01T09:38:11;15.83;;;15.00;;
3050;SDS011;1535;51.098;6.414;2023-08-01T09:40:41;14.60;;;13.80;;
3050;SDS011;1535;51.098;6.414;2023-08-01T09:43:10;14.17;;;13.57;;
3050;SDS011;1535;51.098;6.414;2023-08-01T09:45:37;15.80;;;14.93;;
3050;SDS011;1535;51.098;6.414;2023-08-01T09:48:20;15.27;;;14.37;;
3050;SDS011;1535;51.098;6.414;2023-08-01T09:50:49;15.47;;;14.77;;
3050;SDS011;1535;51.098;6.414;2023-08-01T09:53:16;15.90;;;14.80;;
3050;SDS011;1535;51.098;6.414;2023-08-01T09:55:45;16.83;;;15.90;;
3050;SDS011;1535;51.098;6.414;2023-08-01T09:58:14;15.90;;;15.10;;
3050;SDS011;1535;51.098;6.414;2023-08-01T10:00:48;14.93;;;14.23;;
3050;SDS011;1535;51.098;6.414;2023-08-01T10:03:16;17.40;;;16.23;;
3050;SDS011;1535;51.098;6.414;2023-08-01T10:05:43;15.27;;;14.27;;
3050;SDS011;1535;51.098;6.414;2023-08-01T10:08:11;18.13;;;16.50;;
3050;SDS011;1535;51.098;6.414;2023-08-01T10:10:39;16.10;;;14.87;;
3050;SDS011;1535;51.098;6.414;2023-08-01T10:13:08;15.17;;;14.33;;
3050;SDS011;1535;51.098;6.414;2023-08-01T10:15:38;14.20;;;13.60;;
3050;SDS011;1535;51.098;6.414;2023-08-01T10:18:05;15.97;;;14.97;;
3050;SDS011;1535;51.098;6.414;2023-08-01T10:20:32;16.50;;;15.07;;
3050;SDS011;1535;51.098;6.414;2023-08-01T10:23:01;15.90;;;15.20;;
3050;SDS011;1535;51.098;6.414;2023-08-01T10:25:29;14.70;;;14.00;;
3050;SDS011;1535;51.098;6.414;2023-08-01T10:27:58;14.67;;;13.97;;
3050;SDS011;1535;51.098;6.414;2023-08-01T10:30:27;15.73;;;15.03;;
3050;SDS011;1535;51.098;6.414;2023-08-01T10:32:56;16.70;;;15.63;;
3050;SDS011;1535;51.098;6.414;2023-08-01T10:35:34;15.77;;;15.00;;
3050;SDS011;1535;51.098;6.414;2023-08-01T10:38:05;15.03;;;14.33;;
3050;SDS011;1535;51.098;6.414;2023-08-01T10:40:33;15.53;;;14.63;;
3050;SDS011;1535;51.098;6.414;2023-08-01T10:43:05;14.50;;;13.90;;
3050;SDS011;1535;51.098;6.414;2023-08-01T10:45:33;14.20;;;13.60;;
3050;SDS011;1535;51.098;6.414;2023-08-01T10:48:07;16.33;;;15.33;;
3050;SDS011;1535;51.098;6.414;2023-08-01T10:50:35;15.73;;;14.93;;
3050;SDS011;1535;51.098;6.414;2023-08-01T10:53:03;15.17;;;14.47;;
3050;SDS011;1535;51.098;6.414;2023-08-01T10:55:41;15.57;;;14.80;;
3050;SDS011;1535;51.098;6.414;2023-08-01T10:58:08;15.00;;;14.30;;
3050;SDS011;1535;51.098;6.414;2023-08-01T11:00:37;15.73;;;14.67;;
3050;SDS011;1535;51.098;6.414;2023-08-01T11:03:04;16.40;;;15.50;;
3050;SDS011;1535;51.098;6.414;2023-08-01T11:05:31;15.50;;;14.70;;
3050;SDS011;1535;51.098;6.414;2023-08-01T11:07:58;17.70;;;16.63;;
3050;SDS011;1535;51.098;6.414;2023-08-01T11:10:27;16.70;;;15.80;;
3050;SDS011;1535;51.098;6.414;2023-08-01T11:12:54;17.13;;;16.33;;
3050;SDS011;1535;51.098;6.414;2023-08-01T11:15:22;17.60;;;16.70;;
3050;SDS011;1535;51.098;6.414;2023-08-01T11:17:50;16.73;;;15.90;;
3050;SDS011;1535;51.098;6.414;2023-08-01T11:20:19;16.70;;;15.90;;
3050;SDS011;1535;51.098;6.414;2023-08-01T11:22:51;16.50;;;15.70;;
3050;SDS011;1535;51.098;6.414;2023-08-01T11:25:19;15.90;;;15.20;;
3050;SDS011;1535;51.098;6.414;2023-08-01T11:27:57;16.20;;;15.50;;
3050;SDS011;1535;51.098;6.414;2023-08-01T11:30:29;15.67;;;14.90;;
3050;SDS011;1535;51.098;6.414;2023-08-01T11:32:59;15.60;;;14.83;;
3050;SDS011;1535;51.098;6.414;2023-08-01T11:35:27;14.70;;;14.00;;
3050;SDS011;1535;51.098;6.414;2023-08-01T11:37:54;14.57;;;13.97;;
3050;SDS011;1535;51.098;6.414;2023-08-01T11:40:24;15.50;;;14.70;;
3050;SDS011;1535;51.098;6.414;2023-08-01T11:42:53;14.20;;;13.60;;
3050;SDS011;1535;51.098;6.414;2023-08-01T11:45:23;14.53;;;13.93;;
3050;SDS011;1535;51.098;6.414;2023-08-01T11:47:51;14.70;;;13.90;;
3050;SDS011;1535;51.098;6.414;2023-08-01T11:50:22;14.53;;;13.57;;
3050;SDS011;1535;51.098;6.414;2023-08-01T11:52:49;14.43;;;13.67;;
3050;SDS011;1535;51.098;6.414;2023-08-01T11:55:21;14.63;;;13.90;;
3050;SDS011;1535;51.098;6.414;2023-08-01T11:57:52;14.47;;;13.70;;
3050;SDS011;1535;51.098;6.414;2023-08-01T12:00:23;13.23;;;12.63;;
3050;SDS011;1535;51.098;6.414;2023-08-01T12:02:51;11.83;;;11.33;;
3050;SDS011;1535;51.098;6.414;2023-08-01T12:05:30;13.27;;;12.63;;
3050;SDS011;1535;51.098;6.414;2023-08-01T12:08:07;13.27;;;12.63;;
3050;SDS011;1535;51.098;6.414;2023-08-01T12:10:36;13.50;;;12.90;;
3050;SDS011;1535;51.098;6.414;2023-08-01T12:13:04;14.00;;;13.20;;
3050;SDS011;1535;51.098;6.414;2023-08-01T12:15:31;14.40;;;13.70;;
3050;SDS011;1535;51.098;6.414;2023-08-01T12:17:58;15.63;;;14.53;;
3050;SDS011;1535;51.098;6.414;2023-08-01T12:20:25;14.20;;;13.60;;
3050;SDS011;1535;51.098;6.414;2023-08-01T12:22:53;14.63;;;13.73;;
3050;SDS011;1535;51.098;6.414;2023-08-01T12:25:20;13.60;;;13.10;;
3050;SDS011;1535;51.098;6.414;2023-08-01T12:27:47;15.97;;;14.97;;
3050;SDS011;1535;51.098;6.414;2023-08-01T12:30:15;18.40;;;17.50;;
3050;SDS011;1535;51.098;6.414;2023-08-01T12:32:42;18.00;;;17.10;;
3050;SDS011;1535;51.098;6.414;2023-08-01T12:35:09;17.70;;;16.70;;
3050;SDS011;1535;51.098;6.414;2023-08-01T12:37:36;15.93;;;15.13;;
3050;SDS011;1535;51.098;6.414;2023-08-01T12:40:06;17.83;;;16.77;;
3050;SDS011;1535;51.098;6.414;2023-08-01T12:42:35;16.60;;;15.60;;
3050;SDS011;1535;51.098;6.414;2023-08-01T12:45:02;14.53;;;13.73;;
3050;SDS011;1535;51.098;6.414;2023-08-01T12:47:30;15.00;;;14.00;;
3050;SDS011;1535;51.098;6.414;2023-08-01T12:49:57;13.87;;;13.20;;
3050;SDS011;1535;51.098;6.414;2023-08-01T12:52:24;20.80;;;19.60;;
3050;SDS011;1535;51.098;6.414;2023-08-01T12:54:51;21.50;;;20.40;;
3050;SDS011;1535;51.098;6.414;2023-08-01T12:57:19;17.23;;;16.40;;
3050;SDS011;1535;51.098;6.414;2023-08-01T12:59:46;17.00;;;16.20;;
3050;SDS011;1535;51.098;6.414;2023-08-01T13:02:14;19.73;;;18.93;;
3050;SDS011;1535;51.098;6.414;2023-08-01T13:04:41;12.90;;;12.40;;
3050;SDS011;1535;51.098;6.414;2023-08-01T13:07:09;9.47;;;9.17;;
3050;SDS011;1535;51.098;6.414;2023-08-01T13:09:35;6.80;;;6.60;;
3050;SDS011;1535;51.098;6.414;2023-08-01T13:12:03;8.73;;;8.47;;
3050;SDS011;1535;51.098;6.414;2023-08-01T13:14:32;8.87;;;8.57;;
3050;SDS011;1535;51.098;6.414;2023-08-01T13:17:01;9.13;;;8.93;;
3050;SDS011;1535;51.098;6.414;2023-08-01T13:19:28;12.67;;;12.07;;
3050;SDS011;1535;51.098;6.414;2023-08-01T13:21:55;13.43;;;12.93;;
3050;SDS011;1535;51.098;6.414;2023-08-01T13:24:22;14.30;;;13.70;;
3050;SDS011;1535;51.098;6.414;2023-08-01T13:26:49;13.40;;;12.80;;
3050;SDS011;1535;51.098;6.414;2023-08-01T13:29:16;14.47;;;13.87;;
3050;SDS011;1535;51.098;6.414;2023-08-01T13:31:45;13.97;;;13.47;;
3050;SDS011;1535;51.098;6.414;2023-08-01T13:34:14;14.43;;;13.83;;
3050;SDS011;1535;51.098;6.414;2023-08-01T13:36:42;15.07;;;14.37;;
3050;SDS011;1535;51.098;6.414;2023-08-01T13:39:09;15.50;;;14.67;;
3050;SDS011;1535;51.098;6.414;2023-08-01T13:41:36;15.90;;;15.20;;
3050;SDS011;1535;51.098;6.414;2023-08-01T13:44:03;15.70;;;14.97;;
3050;SDS011;1535;51.098;6.414;2023-08-01T13:46:30;16.33;;;15.63;;
3050;SDS011;1535;51.098;6.414;2023-08-01T13:48:59;15.37;;;14.77;;
3050;SDS011;1535;51.098;6.414;2023-08-01T13:51:25;16.40;;;15.70;;
3050;SDS011;1535;51.098;6.414;2023-08-01T13:53:52;16.57;;;15.87;;
3050;SDS011;1535;51.098;6.414;2023-08-01T13:56:20;14.80;;;14.30;;
3050;SDS011;1535;51.098;6.414;2023-08-01T13:58:47;16.30;;;15.70;;
3050;SDS011;1535;51.098;6.414;2023-08-01T14:01:14;15.83;;;15.23;;
3050;SDS011;1535;51.098;6.414;2023-08-01T14:03:41;15.67;;;14.97;;
3050;SDS011;1535;51.098;6.414;2023-08-01T14:06:09;15.10;;;14.50;;
3050;SDS011;1535;51.098;6.414;2023-08-01T14:08:38;16.27;;;15.57;;
3050;SDS011;1535;51.098;6.414;2023-08-01T14:11:06;16.43;;;15.83;;
3050;SDS011;1535;51.098;6.414;2023-08-01T14:13:34;16.23;;;15.63;;
3050;SDS011;1535;51.098;6.414;2023-08-01T14:16:01;15.73;;;15.13;;
3050;SDS011;1535;51.098;6.414;2023-08-01T14:18:29;15.63;;;15.03;;
3050;SDS011;1535;51.098;6.414;2023-08-01T14:20:56;17.37;;;16.67;;
3050;SDS011;1535;51.098;6.414;2023-08-01T14:23:24;15.80;;;15.20;;
3050;SDS011;1535;51.098;6.414;2023-08-01T14:25:56;15.73;;;15.13;;
3050;SDS011;1535;51.098;6.414;2023-08-01T14:28:23;16.30;;;15.70;;
3050;SDS011;1535;51.098;6.414;2023-08-01T14:30:51;16.30;;;15.70;;
3050;SDS011;1535;51.098;6.414;2023-08-01T14:33:17;17.17;;;16.47;;
3050;SDS011;1535;51.098;6.414;2023-08-01T14:35:46;17.60;;;16.90;;
3050;SDS011;1535;51.098;6.414;2023-08-01T14:38:14;16.60;;;16.00;;
3050;SDS011;1535;51.098;6.414;2023-08-01T14:40:43;15.30;;;14.80;;
3050;SDS011;1535;51.098;6.414;2023-08-01T14:43:10;15.10;;;14.60;;
3050;SDS011;1535;51.098;6.414;2023-08-01T14:45:37;14.90;;;14.40;;
3050;SDS011;1535;51.098;6.414;2023-08-01T14:48:04;15.57;;;15.07;;
3050;SDS011;1535;51.098;6.414;2023-08-01T14:50:31;14.87;;;14.37;;
3050;SDS011;1535;51.098;6.414;2023-08-01T14:52:58;15.00;;;14.50;;
3050;SDS011;1535;51.098;6.414;2023-08-01T14:55:26;15.10;;;14.60;;
3050;SDS011;1535;51.098;6.414;2023-08-01T14:57:54;15.17;;;14.67;;
3050;SDS011;1535;51.098;6.414;2023-08-01T15:00:21;15.30;;;14.70;;
3050;SDS011;1535;51.098;6.414;2023-08-01T15:02:48;15.30;;;14.70;;
3050;SDS011;1535;51.098;6.414;2023-08-01T15:05:15;15.13;;;14.63;;